Time;durP1;ratioP1;P1;durP2;ratioP2;P2;SDS_P1;SDS_P2;PMS_P1;PMS_P2;Temp;Humidity;BMP_temperature;BMP_pressure;BME280_temperature;BME280_humidity;BME280_pressure;Samples;Min_cycle;Max_cycle;Signal;HPM_P1;HPM_P2
2023/09/08 00:01:52;;;;;;;;;24.00;23.33;;;;;;;;5099822;27;45512;-76
2023/09/08 00:04:19;;;;;;;;;23.33;23.00;;;;;;;;5100178;27;45295;-76
2023/09/08 00:06:48;;;;;;;;;24.00;24.00;;;;;;;;5081663;27;45351;-75
2023/09/08 00:09:13;;;;;;;;;22.67;22.33;;;;;;;;5099909;27;45338;-75
2023/09/08 00:11:38;;;;;;;;;21.00;18.33;;;;;;;;5099859;27;45932;-76
2023/09/08 00:14:04;;;;;;;;;22.00;21.33;;;;;;;;5100066;27;45306;-75
2023/09/08 00:16:30;;;;;;;;;25.33;24.33;;;;;;;;5099731;27;45436;-75
2023/09/08 00:18:55;;;;;;;;;27.00;23.67;;;;;;;;5099921;27;45466;-76
2023/09/08 00:21:20;;;;;;;;;23.00;22.67;;;;;;;;5099621;27;46300;-75
2023/09/08 00:23:45;;;;;;;;;21.00;21.00;;;;;;;;5081467;27;45323;-76
2023/09/08 00:26:10;;;;;;;;;28.00;25.67;;;;;;;;5087146;27;45466;-75
2023/09/08 00:28:36;;;;;;;;;21.67;21.67;;;;;;;;5085366;27;45272;-75
2023/09/08 00:31:01;;;;;;;;;25.33;25.00;;;;;;;;5103166;27;45328;-75
2023/09/08 00:33:26;;;;;;;;;26.00;25.67;;;;;;;;5084945;27;45841;-75
2023/09/08 00:35:53;;;;;;;;;26.00;25.00;;;;;;;;5103375;27;45208;-76
2023/09/08 00:38:18;;;;;;;;;24.00;23.67;;;;;;;;5103273;27;45255;-76
2023/09/08 00:40:43;;;;;;;;;29.67;28.67;;;;;;;;5103115;27;45406;-75
2023/09/08 00:43:09;;;;;;;;;19.67;19.67;;;;;;;;5103034;27;45256;-76
2023/09/08 00:45:38;;;;;;;;;23.67;23.67;;;;;;;;5103092;27;45338;-75
2023/09/08 00:48:03;;;;;;;;;27.33;27.00;;;;;;;;5103018;27;45399;-75
2023/09/08 00:50:28;;;;;;;;;28.00;27.33;;;;;;;;5102869;27;46478;-75
2023/09/08 00:52:54;;;;;;;;;27.00;25.33;;;;;;;;5102623;27;45329;-76
2023/09/08 00:55:19;;;;;;;;;27.00;26.33;;;;;;;;5082789;28;45291;-75
2023/09/08 00:57:44;;;;;;;;;23.67;23.67;;;;;;;;5082130;28;45327;-75
2023/09/08 01:00:11;;;;;;;;;27.33;26.33;;;;;;;;5063957;28;48045;-76
2023/09/08 01:02:36;;;;;;;;;29.33;27.33;;;;;;;;5082434;28;45292;-75
2023/09/08 01:05:02;;;;;;;;;25.00;24.33;;;;;;;;5064181;28;45285;-75
2023/09/08 01:07:29;;;;;;;;;23.00;22.67;;;;;;;;5082296;28;45315;-75
2023/09/08 01:09:54;;;;;;;;;27.33;26.00;;;;;;;;5082194;28;45316;-75
2023/09/08 01:12:19;;;;;;;;;25.33;24.33;;;;;;;;5063946;28;45369;-75
2023/09/08 01:14:45;;;;;;;;;25.33;24.67;;;;;;;;5079884;28;45455;-75
2023/09/08 01:17:12;;;;;;;;;23.33;22.33;;;;;;;;5070491;28;45451;-75
2023/09/08 01:19:37;;;;;;;;;24.00;23.00;;;;;;;;5081411;28;46106;-75
2023/09/08 01:22:06;;;;;;;;;24.67;24.67;;;;;;;;5081503;28;45257;-75
2023/09/08 01:24:40;;;;;;;;;27.33;26.67;;;;;;;;5081944;28;45406;-75
2023/09/08 01:27:07;;;;;;;;;29.00;25.67;;;;;;;;5081876;28;45614;-76
2023/09/08 01:29:32;;;;;;;;;23.00;23.00;;;;;;;;5073954;27;47213;-75
2023/09/08 01:31:57;;;;;;;;;26.67;24.67;;;;;;;;5101862;27;45303;-75
2023/09/08 01:34:23;;;;;;;;;25.67;25.33;;;;;;;;5102577;27;45274;-75
2023/09/08 01:36:48;;;;;;;;;27.00;24.67;;;;;;;;5101476;27;45338;-75
2023/09/08 01:39:13;;;;;;;;;25.00;24.00;;;;;;;;5102212;27;46080;-75
2023/09/08 01:41:39;;;;;;;;;23.67;23.33;;;;;;;;5102277;27;45389;-75
2023/09/08 01:44:07;;;;;;;;;23.33;23.33;;;;;;;;5083754;27;45506;-75
2023/09/08 01:46:33;;;;;;;;;25.33;24.33;;;;;;;;5102007;27;45178;-75
2023/09/08 01:48:58;;;;;;;;;28.00;25.67;;;;;;;;5101147;27;46309;-75
2023/09/08 01:51:23;;;;;;;;;27.00;25.00;;;;;;;;5081491;28;45410;-75
2023/09/08 01:53:48;;;;;;;;;25.67;23.33;;;;;;;;5063418;28;45395;-75
2023/09/08 01:56:14;;;;;;;;;25.33;24.00;;;;;;;;5081309;28;45534;-75
2023/09/08 01:58:39;;;;;;;;;26.00;24.33;;;;;;;;5063099;28;47147;-75
2023/09/08 02:01:05;;;;;;;;;27.33;25.67;;;;;;;;5063069;28;46059;-75
2023/09/08 02:03:31;;;;;;;;;26.67;24.00;;;;;;;;5081575;28;45312;-75
2023/09/08 02:05:56;;;;;;;;;25.00;25.00;;;;;;;;5081269;28;45147;-76
2023/09/08 02:08:21;;;;;;;;;25.33;22.00;;;;;;;;5081373;28;45322;-75
2023/09/08 02:10:46;;;;;;;;;22.33;20.67;;;;;;;;5063164;28;46027;-76
2023/09/08 02:13:12;;;;;;;;;24.67;24.67;;;;;;;;5081691;28;45512;-75
2023/09/08 02:15:37;;;;;;;;;20.67;20.67;;;;;;;;5062891;28;45856;-75
2023/09/08 02:18:02;;;;;;;;;22.67;22.67;;;;;;;;5081109;28;46329;-75
2023/09/08 02:20:27;;;;;;;;;25.67;25.00;;;;;;;;5081177;28;45358;-75
2023/09/08 02:22:53;;;;;;;;;26.00;25.00;;;;;;;;5063008;28;45364;-76
2023/09/08 02:25:19;;;;;;;;;25.00;23.67;;;;;;;;5081129;28;45335;-75
2023/09/08 02:27:46;;;;;;;;;22.33;22.33;;;;;;;;5062621;28;47208;-75
2023/09/08 02:30:11;;;;;;;;;26.00;26.00;;;;;;;;5078540;27;45464;-75
2023/09/08 02:32:37;;;;;;;;;27.00;25.33;;;;;;;;5101712;27;45492;-75
2023/09/08 02:35:02;;;;;;;;;32.67;28.00;;;;;;;;5101293;27;45512;-75
2023/09/08 02:37:27;;;;;;;;;26.67;25.33;;;;;;;;5101127;27;46142;-76
2023/09/08 02:39:52;;;;;;;;;25.00;24.67;;;;;;;;5083018;27;45347;-75
2023/09/08 02:42:17;;;;;;;;;25.00;22.67;;;;;;;;5082765;27;45312;-76
2023/09/08 02:44:43;;;;;;;;;24.00;22.00;;;;;;;;5101203;27;45418;-75
2023/09/08 02:47:08;;;;;;;;;23.33;22.00;;;;;;;;5100804;27;46060;-75
2023/09/08 02:49:33;;;;;;;;;22.33;22.33;;;;;;;;5081836;27;45316;-75
2023/09/08 02:51:58;;;;;;;;;23.67;23.00;;;;;;;;5082587;27;45324;-75
2023/09/08 02:54:24;;;;;;;;;20.33;20.33;;;;;;;;5082693;27;46161;-76
2023/09/08 02:56:49;;;;;;;;;23.33;21.67;;;;;;;;5100895;27;45352;-75
2023/09/08 02:59:14;;;;;;;;;21.00;20.67;;;;;;;;5101044;27;45365;-76
2023/09/08 03:01:40;;;;;;;;;23.00;22.67;;;;;;;;5100970;27;45326;-75
2023/09/08 03:04:05;;;;;;;;;22.00;20.67;;;;;;;;5082456;27;46349;-75
2023/09/08 03:06:30;;;;;;;;;9.67;9.67;;;;;;;;5100775;27;45256;-75
2023/09/08 03:08:55;;;;;;;;;24.00;23.33;;;;;;;;5082579;27;45965;-75
2023/09/08 03:11:20;;;;;;;;;22.67;22.00;;;;;;;;5100988;27;45393;-75
2023/09/08 03:13:46;;;;;;;;;23.67;20.67;;;;;;;;5082299;27;47381;-75
2023/09/08 03:16:11;;;;;;;;;24.00;23.33;;;;;;;;5100564;27;45398;-75
2023/09/08 03:18:36;;;;;;;;;20.67;20.67;;;;;;;;5082303;27;45533;-75
2023/09/08 03:21:11;;;;;;;;;22.67;22.67;;;;;;;;5100715;27;45270;-75
2023/09/08 03:23:40;;;;;;;;;23.00;20.00;;;;;;;;5100651;27;45249;-75
2023/09/08 03:26:05;;;;;;;;;23.67;22.00;;;;;;;;5100471;27;46144;-75
2023/09/08 03:28:31;;;;;;;;;23.00;20.33;;;;;;;;5098450;27;45526;-75
2023/09/08 03:30:57;;;;;;;;;22.50;21.50;;;;;;;;5080124;28;45324;-75
2023/09/08 03:33:22;;;;;;;;;17.00;17.00;;;;;;;;5080051;28;45186;-75
2023/09/08 03:35:47;;;;;;;;;20.00;20.00;;;;;;;;5061555;28;48576;-75
2023/09/08 03:38:12;;;;;;;;;19.33;18.00;;;;;;;;5080003;28;45267;-75
2023/09/08 03:40:37;;;;;;;;;20.00;19.00;;;;;;;;5080115;28;45302;-75
2023/09/08 03:43:03;;;;;;;;;20.33;20.33;;;;;;;;5079688;28;45482;-75
2023/09/08 03:45:28;;;;;;;;;25.33;24.00;;;;;;;;5079375;28;45286;-75
2023/09/08 03:47:53;;;;;;;;;21.67;21.67;;;;;;;;5079576;28;45265;-75
2023/09/08 03:50:18;;;;;;;;;21.00;21.00;;;;;;;;5079872;28;45564;-75
2023/09/08 03:52:44;;;;;;;;;23.33;22.33;;;;;;;;5061415;28;46166;-75
2023/09/08 03:55:09;;;;;;;;;20.33;20.00;;;;;;;;5079733;28;45327;-75
2023/09/08 03:57:34;;;;;;;;;24.00;23.67;;;;;;;;5079642;28;45682;-76
2023/09/08 03:59:59;;;;;;;;;22.33;22.33;;;;;;;;5063034;28;45739;-75
2023/09/08 04:02:24;;;;;;;;;23.00;23.00;;;;;;;;5083411;28;45257;-75
2023/09/08 04:04:50;;;;;;;;;26.67;26.00;;;;;;;;5083287;28;46084;-74
2023/09/08 04:07:15;;;;;;;;;20.67;19.67;;;;;;;;5083293;28;45201;-75
2023/09/08 04:09:40;;;;;;;;;22.00;21.00;;;;;;;;5083481;28;45455;-75
2023/09/08 04:12:07;;;;;;;;;19.67;19.67;;;;;;;;5083190;28;45516;-75
2023/09/08 04:14:33;;;;;;;;;27.00;26.00;;;;;;;;5083158;28;45908;-75
2023/09/08 04:16:59;;;;;;;;;20.33;20.00;;;;;;;;5082837;28;45348;-75
2023/09/08 04:19:24;;;;;;;;;21.67;20.67;;;;;;;;5065016;28;45299;-75
2023/09/08 04:21:49;;;;;;;;;20.67;20.67;;;;;;;;5083053;28;45317;-75
2023/09/08 04:24:17;;;;;;;;;20.67;19.67;;;;;;;;5082898;28;46557;-76
2023/09/08 04:26:42;;;;;;;;;20.67;20.00;;;;;;;;5083108;28;45343;-75
2023/09/08 04:29:07;;;;;;;;;21.33;20.00;;;;;;;;5090175;27;45277;-74
2023/09/08 04:31:33;;;;;;;;;22.67;22.67;;;;;;;;5103176;27;45630;-75
2023/09/08 04:33:58;;;;;;;;;20.67;20.33;;;;;;;;5103371;27;46380;-75
2023/09/08 04:36:23;;;;;;;;;24.67;23.00;;;;;;;;5103203;27;45169;-75
2023/09/08 04:38:48;;;;;;;;;20.67;20.67;;;;;;;;5103507;27;45440;-75
2023/09/08 04:41:13;;;;;;;;;17.00;17.00;;;;;;;;5084893;27;46607;-75
2023/09/08 04:43:39;;;;;;;;;22.67;22.67;;;;;;;;5102913;27;45370;-75
2023/09/08 04:46:04;;;;;;;;;20.00;20.00;;;;;;;;5103031;27;45311;-75
2023/09/08 04:48:29;;;;;;;;;22.67;22.00;;;;;;;;5103287;27;45268;-75
2023/09/08 04:50:54;;;;;;;;;25.00;23.67;;;;;;;;5084492;27;45585;-75
2023/09/08 04:53:20;;;;;;;;;24.00;23.00;;;;;;;;5103135;27;45268;-75
2023/09/08 04:55:45;;;;;;;;;25.67;24.67;;;;;;;;5102979;27;45509;-75
2023/09/08 04:58:10;;;;;;;;;24.67;23.67;;;;;;;;5084814;27;45384;-75
2023/09/08 05:00:37;;;;;;;;;20.00;20.00;;;;;;;;5097695;27;45145;-75
2023/09/08 05:03:03;;;;;;;;;9.00;9.00;;;;;;;;5064877;28;47254;-75
2023/09/08 05:05:28;;;;;;;;;23.00;21.33;;;;;;;;5061950;28;45362;-75
2023/09/08 05:07:56;;;;;;;;;24.00;22.00;;;;;;;;5062257;28;45461;-75
2023/09/08 05:10:21;;;;;;;;;21.33;21.00;;;;;;;;5062504;28;45486;-74
2023/09/08 05:12:46;;;;;;;;;24.67;23.67;;;;;;;;5065237;28;45342;-73
2023/09/08 05:15:15;;;;;;;;;22.00;22.00;;;;;;;;5063686;28;45411;-74
2023/09/08 05:17:40;;;;;;;;;17.67;17.67;;;;;;;;5048670;28;45271;-72
2023/09/08 05:20:06;;;;;;;;;21.00;20.00;;;;;;;;5061794;28;45367;-72
2023/09/08 05:22:31;;;;;;;;;20.33;20.00;;;;;;;;5061535;28;45216;-72
2023/09/08 05:24:56;;;;;;;;;23.33;21.67;;;;;;;;5072646;28;45185;-72
2023/09/08 05:27:21;;;;;;;;;19.00;19.00;;;;;;;;5054169;28;45273;-72
2023/09/08 05:29:46;;;;;;;;;21.33;21.33;;;;;;;;5075702;27;47130;-72
2023/09/08 05:32:12;;;;;;;;;21.67;20.67;;;;;;;;5057237;28;47508;-73
2023/09/08 05:34:37;;;;;;;;;26.67;25.33;;;;;;;;5078591;28;45258;-74
2023/09/08 05:37:02;;;;;;;;;25.00;22.33;;;;;;;;5076817;28;45415;-73
2023/09/08 05:39:28;;;;;;;;;24.00;23.33;;;;;;;;5063289;28;45958;-73
2023/09/08 05:41:53;;;;;;;;;20.33;20.33;;;;;;;;5081458;28;45414;-73
2023/09/08 05:44:18;;;;;;;;;22.00;21.67;;;;;;;;5081435;28;45338;-75
2023/09/08 05:46:43;;;;;;;;;19.00;17.67;;;;;;;;5063482;28;45328;-73
2023/09/08 05:49:09;;;;;;;;;19.00;18.33;;;;;;;;5081699;28;45342;-73
2023/09/08 05:51:34;;;;;;;;;24.67;22.00;;;;;;;;5081406;28;46965;-73
2023/09/08 05:53:59;;;;;;;;;19.67;19.33;;;;;;;;5081565;28;45364;-73
2023/09/08 05:56:29;;;;;;;;;22.00;19.33;;;;;;;;5059013;28;45427;-73
2023/09/08 05:58:54;;;;;;;;;22.00;21.00;;;;;;;;5081587;28;45750;-73
2023/09/08 06:01:19;;;;;;;;;19.67;19.67;;;;;;;;5081113;28;45794;-72
2023/09/08 06:03:45;;;;;;;;;22.00;20.33;;;;;;;;5081423;28;45300;-73
2023/09/08 06:06:10;;;;;;;;;24.67;24.00;;;;;;;;5081511;28;45278;-72
2023/09/08 06:08:35;;;;;;;;;22.00;22.00;;;;;;;;5081440;28;45170;-72
2023/09/08 06:11:00;;;;;;;;;20.00;19.00;;;;;;;;5081171;28;46294;-72
2023/09/08 06:13:25;;;;;;;;;20.00;19.00;;;;;;;;5081329;28;45390;-71
2023/09/08 06:15:51;;;;;;;;;22.67;21.67;;;;;;;;5062996;28;45556;-71
2023/09/08 06:18:16;;;;;;;;;22.67;21.00;;;;;;;;5081343;28;45509;-71
2023/09/08 06:20:47;;;;;;;;;19.00;19.00;;;;;;;;5080725;28;46081;-71
2023/09/08 06:23:13;;;;;;;;;20.00;20.00;;;;;;;;5080941;28;45392;-72
2023/09/08 06:25:38;;;;;;;;;19.67;19.67;;;;;;;;5077032;28;45262;-75
2023/09/08 06:28:03;;;;;;;;;17.67;16.67;;;;;;;;5073461;28;45259;-74
2023/09/08 06:30:28;;;;;;;;;20.33;20.33;;;;;;;;5059638;28;45406;-71
2023/09/08 06:32:54;;;;;;;;;20.00;20.00;;;;;;;;5080862;28;45331;-72
2023/09/08 06:35:19;;;;;;;;;22.00;22.00;;;;;;;;5062771;28;45421;-72
2023/09/08 06:37:44;;;;;;;;;21.00;20.00;;;;;;;;5080961;28;45312;-72
2023/09/08 06:40:10;;;;;;;;;20.33;20.33;;;;;;;;5080862;28;45272;-72
2023/09/08 06:42:35;;;;;;;;;18.33;18.33;;;;;;;;5080551;28;45247;-72
2023/09/08 06:45:00;;;;;;;;;21.67;20.33;;;;;;;;5076623;28;45382;-71
2023/09/08 06:47:25;;;;;;;;;28.00;23.67;;;;;;;;5061035;28;45424;-72
2023/09/08 06:49:50;;;;;;;;;24.00;22.00;;;;;;;;5042671;28;47058;-71
2023/09/08 06:52:17;;;;;;;;;23.67;20.67;;;;;;;;5062113;28;45362;-72
2023/09/08 06:54:42;;;;;;;;;19.67;16.33;;;;;;;;5060524;28;45311;-71
2023/09/08 06:57:07;;;;;;;;;22.00;22.00;;;;;;;;5059954;28;45532;-73
2023/09/08 06:59:32;;;;;;;;;21.00;19.67;;;;;;;;5060324;28;45536;-73
2023/09/08 07:01:57;;;;;;;;;21.00;21.00;;;;;;;;5041890;28;45999;-72
2023/09/08 07:04:22;;;;;;;;;20.67;20.67;;;;;;;;5060002;28;45390;-72
2023/09/08 07:06:49;;;;;;;;;21.33;19.33;;;;;;;;5041977;28;47107;-72
2023/09/08 07:09:15;;;;;;;;;24.33;23.33;;;;;;;;5059962;28;45368;-73
2023/09/08 07:11:40;;;;;;;;;21.00;21.00;;;;;;;;5059966;28;45367;-74
2023/09/08 07:14:05;;;;;;;;;20.33;19.67;;;;;;;;5059399;28;45407;-74
2023/09/08 07:16:31;;;;;;;;;20.33;20.33;;;;;;;;5059901;28;45305;-74
2023/09/08 07:18:56;;;;;;;;;22.00;22.00;;;;;;;;5059460;28;46426;-75
2023/09/08 07:21:21;;;;;;;;;20.67;20.67;;;;;;;;5059897;28;45268;-74
2023/09/08 07:23:46;;;;;;;;;21.67;19.33;;;;;;;;5041985;28;45384;-74
2023/09/08 07:26:12;;;;;;;;;19.00;19.00;;;;;;;;5059958;28;45383;-74
2023/09/08 07:28:37;;;;;;;;;18.00;18.00;;;;;;;;5047382;27;48126;-74
2023/09/08 07:31:06;;;;;;;;;18.67;18.00;;;;;;;;5081893;27;45320;-75
2023/09/08 07:33:31;;;;;;;;;18.00;18.00;;;;;;;;5100493;27;45260;-74
2023/09/08 07:35:57;;;;;;;;;20.00;19.00;;;;;;;;5099589;27;45232;-74
2023/09/08 07:38:22;;;;;;;;;20.67;20.67;;;;;;;;5100346;27;46895;-74
2023/09/08 07:40:47;;;;;;;;;21.33;18.67;;;;;;;;5100359;27;45465;-74
2023/09/08 07:43:12;;;;;;;;;22.33;22.33;;;;;;;;5100399;27;45484;-74
2023/09/08 07:45:40;;;;;;;;;21.33;18.33;;;;;;;;5100113;27;45684;-74
2023/09/08 07:48:05;;;;;;;;;21.33;21.33;;;;;;;;5081751;27;47075;-74
2023/09/08 07:50:31;;;;;;;;;25.33;22.67;;;;;;;;5100057;27;45325;-74
2023/09/08 07:52:56;;;;;;;;;19.33;19.00;;;;;;;;5100372;27;45251;-74
2023/09/08 07:55:22;;;;;;;;;21.00;19.00;;;;;;;;5100258;27;45387;-74
2023/09/08 07:57:48;;;;;;;;;24.67;23.67;;;;;;;;5081497;27;48070;-73
2023/09/08 08:00:14;;;;;;;;;20.67;20.67;;;;;;;;5099902;27;45273;-74
2023/09/08 08:02:41;;;;;;;;;24.00;22.33;;;;;;;;5100155;27;45349;-73
2023/09/08 08:05:07;;;;;;;;;23.33;21.33;;;;;;;;5100146;27;45402;-74
2023/09/08 08:07:32;;;;;;;;;21.00;20.33;;;;;;;;5100031;27;45294;-77
2023/09/08 08:09:57;;;;;;;;;22.00;21.00;;;;;;;;5099527;27;45393;-76
2023/09/08 08:12:22;;;;;;;;;17.67;17.33;;;;;;;;5100029;27;45343;-76
2023/09/08 08:14:48;;;;;;;;;23.67;22.67;;;;;;;;5095425;27;45355;-75
2023/09/08 08:17:13;;;;;;;;;23.33;21.33;;;;;;;;5079470;28;45362;-75
2023/09/08 08:19:38;;;;;;;;;22.00;20.67;;;;;;;;5078602;28;45380;-76
2023/09/08 08:22:03;;;;;;;;;23.00;22.67;;;;;;;;5079284;28;45338;-76
2023/09/08 08:24:28;;;;;;;;;20.00;19.33;;;;;;;;5079234;28;45341;-75
2023/09/08 08:26:54;;;;;;;;;29.00;27.67;;;;;;;;5060890;28;48135;-75
2023/09/08 08:29:19;;;;;;;;;25.00;24.00;;;;;;;;5087976;27;45339;-76
2023/09/08 08:31:44;;;;;;;;;23.33;22.67;;;;;;;;5099027;27;45316;-76
2023/09/08 08:34:09;;;;;;;;;19.67;19.67;;;;;;;;5082387;27;45348;-76
2023/09/08 08:36:34;;;;;;;;;22.67;20.67;;;;;;;;5051252;28;47464;-78
2023/09/08 08:39:00;;;;;;;;;23.67;22.00;;;;;;;;5067497;28;45346;-82
2023/09/08 08:41:25;;;;;;;;;20.67;20.67;;;;;;;;5051296;28;45540;-74
2023/09/08 08:43:51;;;;;;;;;20.33;20.33;;;;;;;;5067208;28;45618;-74
2023/09/08 08:46:17;;;;;;;;;21.00;19.67;;;;;;;;5066529;27;46274;-74
2023/09/08 08:48:44;;;;;;;;;18.67;18.67;;;;;;;;5069892;28;45371;-74
2023/09/08 08:51:10;;;;;;;;;22.67;20.00;;;;;;;;5069916;27;45323;-75
2023/09/08 08:53:37;;;;;;;;;16.00;16.00;;;;;;;;5079697;28;45466;-74
2023/09/08 08:56:03;;;;;;;;;18.00;17.00;;;;;;;;5070614;27;45869;-74
2023/09/08 08:58:29;;;;;;;;;20.67;20.00;;;;;;;;5072000;28;45395;-74
2023/09/08 09:00:56;;;;;;;;;18.00;16.33;;;;;;;;5071438;28;45423;-75
2023/09/08 09:03:22;;;;;;;;;20.33;16.67;;;;;;;;5070341;27;45439;-74
2023/09/08 09:05:48;;;;;;;;;17.00;17.00;;;;;;;;5072001;28;45335;-74
2023/09/08 09:08:18;;;;;;;;;20.67;19.67;;;;;;;;5066627;27;45383;-74
2023/09/08 09:10:43;;;;;;;;;18.50;17.00;;;;;;;;5062968;28;45339;-73
2023/09/08 09:13:08;;;;;;;;;17.00;16.50;;;;;;;;5082143;28;45319;-73
2023/09/08 09:15:33;;;;;;;;;16.33;15.33;;;;;;;;5081953;28;45421;-74
2023/09/08 09:18:03;;;;;;;;;17.00;16.67;;;;;;;;5077997;28;47462;-74
2023/09/08 09:20:28;;;;;;;;;18.00;17.00;;;;;;;;5071712;28;45475;-74
2023/09/08 09:22:53;;;;;;;;;19.67;17.33;;;;;;;;5053699;28;46143;-74
2023/09/08 09:25:23;;;;;;;;;14.25;14.25;;;;;;;;5066151;28;46280;-75
2023/09/08 09:27:55;;;;;;;;;11.50;11.50;;;;;;;;5070598;28;45373;-76
2023/09/08 09:30:20;;;;;;;;;10.75;10.75;;;;;;;;5073367;27;45295;-74
2023/09/08 09:32:46;;;;;;;;;15.25;13.75;;;;;;;;5067262;28;46365;-74
2023/09/08 09:35:11;;;;;;;;;13.75;12.50;;;;;;;;5071905;28;45410;-75
2023/09/08 09:37:37;;;;;;;;;11.00;11.00;;;;;;;;5070791;28;45434;-74
2023/09/08 09:40:07;;;;;;;;;14.50;12.50;;;;;;;;5073518;28;45446;-74
2023/09/08 09:42:32;;;;;;;;;12.33;12.33;;;;;;;;5081600;28;46159;-74
2023/09/08 09:45:00;;;;;;;;;11.50;11.00;;;;;;;;5076736;28;45687;-74
2023/09/08 09:47:25;;;;;;;;;10.25;10.25;;;;;;;;5069894;28;45363;-75
2023/09/08 09:49:50;;;;;;;;;11.00;11.00;;;;;;;;5064195;28;46005;-74
2023/09/08 09:52:23;;;;;;;;;13.00;13.00;;;;;;;;5050743;28;47148;-74
2023/09/08 09:54:50;;;;;;;;;11.75;11.75;;;;;;;;5081610;28;45330;-74
2023/09/08 09:57:16;;;;;;;;;11.00;10.50;;;;;;;;5080817;28;45394;-75
2023/09/08 09:59:41;;;;;;;;;11.75;11.50;;;;;;;;5081520;28;45450;-75
2023/09/08 10:02:12;;;;;;;;;11.75;10.75;;;;;;;;5081618;28;45189;-75
2023/09/08 10:04:38;;;;;;;;;11.75;10.75;;;;;;;;5081359;28;46317;-74
2023/09/08 10:07:03;;;;;;;;;9.75;9.50;;;;;;;;5081350;28;45355;-76
2023/09/08 10:09:28;;;;;;;;;13.00;11.50;;;;;;;;5063462;28;45262;-74
2023/09/08 10:11:54;;;;;;;;;12.00;10.75;;;;;;;;5081433;28;45449;-73
2023/09/08 10:14:21;;;;;;;;;10.75;9.75;;;;;;;;5081174;28;46034;-73
2023/09/08 10:16:52;;;;;;;;;10.50;10.50;;;;;;;;5062763;28;46140;-73
2023/09/08 10:19:17;;;;;;;;;11.25;11.25;;;;;;;;5081296;28;45321;-74
2023/09/08 10:21:44;;;;;;;;;11.00;11.00;;;;;;;;5062752;28;46266;-73
2023/09/08 10:24:25;;;;;;;;;12.25;12.25;;;;;;;;5080973;28;45247;-73
2023/09/08 10:27:10;;;;;;;;;12.00;10.50;;;;;;;;5062859;28;46024;-74
2023/09/08 10:29:36;;;;;;;;;16.00;14.50;;;;;;;;5072479;27;45530;-74
2023/09/08 10:32:02;;;;;;;;;13.25;12.00;;;;;;;;5079253;28;45477;-74
2023/09/08 10:34:28;;;;;;;;;12.25;12.25;;;;;;;;5069054;28;46532;-74
2023/09/08 10:36:53;;;;;;;;;12.50;12.50;;;;;;;;5071464;28;45362;-73
2023/09/08 10:39:30;;;;;;;;;10.75;10.75;;;;;;;;5081174;28;45458;-73
2023/09/08 10:42:14;;;;;;;;;15.00;14.00;;;;;;;;5080818;28;45480;-73
2023/09/08 10:44:39;;;;;;;;;10.00;9.50;;;;;;;;5062183;28;48496;-74
2023/09/08 10:47:05;;;;;;;;;12.00;11.25;;;;;;;;5081013;28;45268;-73
2023/09/08 10:49:34;;;;;;;;;11.25;11.25;;;;;;;;5080895;28;45220;-73
2023/09/08 10:52:10;;;;;;;;;10.50;10.50;;;;;;;;5076664;28;45680;-74
2023/09/08 10:54:41;;;;;;;;;10.00;8.25;;;;;;;;5080398;28;45496;-73
2023/09/08 10:57:12;;;;;;;;;13.00;11.75;;;;;;;;5075871;28;45505;-73
2023/09/08 10:59:38;;;;;;;;;11.00;10.50;;;;;;;;5068852;28;45531;-73
2023/09/08 11:02:04;;;;;;;;;12.50;11.75;;;;;;;;5065384;28;45291;-73
2023/09/08 11:04:29;;;;;;;;;12.00;10.50;;;;;;;;5072455;28;45454;-74
2023/09/08 11:06:56;;;;;;;;;10.00;10.00;;;;;;;;5080376;28;45212;-73
2023/09/08 11:09:23;;;;;;;;;11.25;11.25;;;;;;;;5061191;28;45480;-72
2023/09/08 11:11:48;;;;;;;;;14.25;12.25;;;;;;;;5080459;28;45359;-71
2023/09/08 11:14:14;;;;;;;;;10.75;10.50;;;;;;;;5080181;28;46250;-73
2023/09/08 11:16:39;;;;;;;;;13.50;10.50;;;;;;;;5080019;28;45512;-73
2023/09/08 11:19:04;;;;;;;;;21.25;21.25;;;;;;;;5046325;28;45360;-74
2023/09/08 11:21:34;;;;;;;;;13.75;13.00;;;;;;;;5059973;28;45284;-73
2023/09/08 11:24:00;;;;;;;;;10.00;10.00;;;;;;;;5059942;28;45223;-73
2023/09/08 11:26:25;;;;;;;;;10.00;10.00;;;;;;;;5059916;28;45292;-73
2023/09/08 11:28:50;;;;;;;;;12.75;12.00;;;;;;;;5070626;27;45343;-73
2023/09/08 11:31:16;;;;;;;;;8.75;8.50;;;;;;;;5064891;28;45290;-74
2023/09/08 11:33:41;;;;;;;;;10.00;9.00;;;;;;;;5069961;28;45284;-73
2023/09/08 11:36:14;;;;;;;;;9.25;9.25;;;;;;;;5070767;28;45230;-73
2023/09/08 11:38:41;;;;;;;;;9.75;9.75;;;;;;;;5066730;28;45489;-73
2023/09/08 11:41:06;;;;;;;;;9.25;9.25;;;;;;;;5068992;28;45367;-74
2023/09/08 11:43:33;;;;;;;;;12.00;11.50;;;;;;;;5067415;28;46022;-72
2023/09/08 11:45:59;;;;;;;;;9.25;9.00;;;;;;;;5071906;28;45539;-75
2023/09/08 11:48:24;;;;;;;;;9.75;9.75;;;;;;;;5065209;28;45383;-76
2023/09/08 11:50:52;;;;;;;;;9.50;9.50;;;;;;;;5041112;28;46309;-76
2023/09/08 11:53:19;;;;;;;;;12.00;11.00;;;;;;;;5059539;28;46194;-75
2023/09/08 11:55:44;;;;;;;;;9.00;9.00;;;;;;;;5059417;28;45218;-75
2023/09/08 11:58:11;;;;;;;;;9.75;9.75;;;;;;;;5059738;28;45280;-76
2023/09/08 12:00:37;;;;;;;;;11.50;10.25;;;;;;;;5059192;28;45311;-76
2023/09/08 12:03:09;;;;;;;;;12.25;9.75;;;;;;;;5059251;28;46147;-76
2023/09/08 12:05:35;;;;;;;;;9.00;9.00;;;;;;;;5059106;28;45350;-77
2023/09/08 12:08:04;;;;;;;;;8.25;8.25;;;;;;;;5057971;28;45606;-75
2023/09/08 12:10:30;;;;;;;;;9.00;9.00;;;;;;;;5059273;28;45395;-75
2023/09/08 12:12:59;;;;;;;;;10.25;10.25;;;;;;;;5059269;28;45350;-76
2023/09/08 12:15:35;;;;;;;;;10.50;10.50;;;;;;;;5059245;28;45281;-75
2023/09/08 12:18:01;;;;;;;;;11.25;10.50;;;;;;;;5059340;28;45268;-76
2023/09/08 12:20:26;;;;;;;;;12.25;10.50;;;;;;;;5041614;28;45881;-75
2023/09/08 12:22:51;;;;;;;;;9.50;9.50;;;;;;;;5062237;28;46349;-75
2023/09/08 12:25:17;;;;;;;;;11.50;11.50;;;;;;;;5062916;28;45287;-75
2023/09/08 12:27:46;;;;;;;;;11.00;10.25;;;;;;;;5062934;28;45221;-75
2023/09/08 12:30:16;;;;;;;;;10.00;10.00;;;;;;;;5076181;27;47210;-76
2023/09/08 12:32:41;;;;;;;;;9.75;9.75;;;;;;;;5098420;27;46178;-74
2023/09/08 12:35:07;;;;;;;;;12.00;10.75;;;;;;;;5082866;28;45330;-75
2023/09/08 12:37:33;;;;;;;;;11.75;10.50;;;;;;;;5082980;28;45225;-74
2023/09/08 12:40:00;;;;;;;;;10.50;10.50;;;;;;;;5082734;28;45312;-74
2023/09/08 12:42:28;;;;;;;;;9.25;9.25;;;;;;;;5082649;28;45335;-73
2023/09/08 12:44:53;;;;;;;;;10.25;10.25;;;;;;;;5082532;28;45372;-74
2023/09/08 12:47:18;;;;;;;;;10.75;9.75;;;;;;;;5082642;28;45309;-74
2023/09/08 12:49:44;;;;;;;;;11.67;10.67;;;;;;;;5082675;28;45536;-74
2023/09/08 12:52:09;;;;;;;;;6.00;6.00;;;;;;;;5081734;28;45860;-74
2023/09/08 12:54:34;;;;;;;;;9.75;9.75;;;;;;;;5079838;28;45677;-73
2023/09/08 12:57:00;;;;;;;;;10.00;10.00;;;;;;;;5082547;28;45225;-73
2023/09/08 12:59:25;;;;;;;;;11.25;9.00;;;;;;;;5082321;28;45608;-74
2023/09/08 13:01:50;;;;;;;;;10.00;10.00;;;;;;;;5082557;28;46140;-74
2023/09/08 13:04:15;;;;;;;;;10.00;10.00;;;;;;;;5082416;28;45358;-74
2023/09/08 13:06:41;;;;;;;;;8.00;7.75;;;;;;;;5082590;28;45233;-74
2023/09/08 13:09:08;;;;;;;;;14.33;11.67;;;;;;;;5082426;28;45259;-74
2023/09/08 13:11:33;;;;;;;;;11.00;10.33;;;;;;;;5082384;28;46175;-74
2023/09/08 13:13:58;;;;;;;;;9.50;9.50;;;;;;;;5082338;28;45344;-73
2023/09/08 13:16:24;;;;;;;;;10.25;10.25;;;;;;;;5057541;28;45323;-74
2023/09/08 13:18:49;;;;;;;;;9.75;8.75;;;;;;;;5062987;28;47129;-74
2023/09/08 13:21:14;;;;;;;;;9.75;9.75;;;;;;;;5089381;27;45928;-75
2023/09/08 13:23:39;;;;;;;;;8.75;8.75;;;;;;;;5102223;27;45429;-74
2023/09/08 13:26:05;;;;;;;;;9.50;9.25;;;;;;;;5102298;27;45507;-74
2023/09/08 13:28:30;;;;;;;;;11.75;11.75;;;;;;;;5100281;27;45524;-74
2023/09/08 13:30:55;;;;;;;;;9.00;9.00;;;;;;;;5081174;27;45448;-74
2023/09/08 13:33:20;;;;;;;;;12.00;11.00;;;;;;;;5080793;28;45312;-74
2023/09/08 13:35:45;;;;;;;;;9.50;9.25;;;;;;;;5082011;27;45540;-74
2023/09/08 13:38:10;;;;;;;;;10.75;9.25;;;;;;;;5081719;28;45510;-74
2023/09/08 13:40:36;;;;;;;;;9.25;9.25;;;;;;;;5081410;27;45581;-75
2023/09/08 13:43:01;;;;;;;;;11.50;10.50;;;;;;;;5081091;28;45499;-74
2023/09/08 13:45:26;;;;;;;;;9.25;9.25;;;;;;;;5054923;28;45398;-74
2023/09/08 13:47:51;;;;;;;;;10.00;10.00;;;;;;;;5068460;27;45403;-73
2023/09/08 13:50:17;;;;;;;;;12.00;10.25;;;;;;;;5058927;28;45553;-73
2023/09/08 13:52:43;;;;;;;;;10.50;10.25;;;;;;;;5059203;28;45394;-73
2023/09/08 13:55:08;;;;;;;;;9.75;9.00;;;;;;;;5059215;28;45372;-74
2023/09/08 13:57:34;;;;;;;;;11.00;11.00;;;;;;;;5058785;28;45617;-73
2023/09/08 13:59:59;;;;;;;;;11.00;11.00;;;;;;;;5041334;28;48585;-73
2023/09/08 14:02:24;;;;;;;;;11.00;11.00;;;;;;;;5060115;28;45350;-74
2023/09/08 14:04:49;;;;;;;;;10.50;10.25;;;;;;;;5061332;28;45461;-74
2023/09/08 14:07:15;;;;;;;;;11.00;10.75;;;;;;;;5066556;28;45444;-76
2023/09/08 14:09:40;;;;;;;;;11.75;10.00;;;;;;;;5062579;28;48066;-75
2023/09/08 14:12:05;;;;;;;;;10.50;10.50;;;;;;;;5081442;28;45306;-74